createdAt,value
2018-09-01T00:01:51.326Z,100453.41
2018-09-01T00:04:17.374Z,100451.66
2018-09-01T00:06:43.320Z,100451.03
2018-09-01T00:09:09.289Z,100454.41
2018-09-01T00:11:35.239Z,100443.83
2018-09-01T00:14:01.219Z,100454.52
2018-09-01T00:16:27.244Z,100453.33
2018-09-01T00:18:53.143Z,100438.69
2018-09-01T00:21:19.088Z,100442.81
2018-09-01T00:23:45.145Z,100446.50
2018-09-01T00:26:11.091Z,100450.60
2018-09-01T00:28:37.071Z,100454.31
2018-09-01T00:31:03.013Z,100460.69
2018-09-01T00:33:28.989Z,100460.89
2018-09-01T00:35:54.936Z,100451.22
2018-09-01T00:38:20.921Z,100458.58
2018-09-01T00:40:46.890Z,100463.64
2018-09-01T00:43:12.864Z,100458.88
2018-09-01T00:45:38.805Z,100465.16
2018-09-01T00:48:04.772Z,100466.72
2018-09-01T00:50:30.732Z,100472.44
2018-09-01T00:52:56.712Z,100349.27
2018-09-01T00:55:22.674Z,100474.58
2018-09-01T00:57:48.770Z,100467.57
2018-09-01T01:00:14.789Z,100466.68
2018-09-01T01:02:40.751Z,100468.74
2018-09-01T01:05:06.719Z,100463.12
2018-09-01T01:07:32.651Z,100455.64
2018-09-01T01:09:58.599Z,100453.34
2018-09-01T01:12:24.577Z,100453.56
2018-09-01T01:14:50.703Z,100451.94
2018-09-01T01:17:16.674Z,100451.27
2018-09-01T01:19:42.629Z,100449.42
2018-09-01T01:22:08.587Z,100450.47
2018-09-01T01:24:35.210Z,100446.94
2018-09-01T01:27:01.173Z,100444.56
2018-09-01T01:29:27.153Z,100440.39
2018-09-01T01:31:53.099Z,100445.66
2018-09-01T01:34:19.064Z,100450.14
2018-09-01T01:36:45.000Z,100452.52
2018-09-01T01:39:10.958Z,100454.75
2018-09-01T01:41:36.899Z,100462.50
2018-09-01T01:44:02.847Z,100454.41
2018-09-01T01:46:28.785Z,100442.62
2018-09-01T01:48:54.731Z,100446.56
2018-09-01T01:51:20.691Z,100446.34
2018-09-01T01:53:46.732Z,100455.25
2018-09-01T01:56:12.649Z,100461.42
2018-09-01T01:58:38.591Z,100473.78
2018-09-01T02:01:04.543Z,100473.00
2018-09-01T02:03:30.482Z,100473.25
2018-09-01T02:05:56.404Z,100476.34
2018-09-01T02:08:22.359Z,100472.62
2018-09-01T02:10:48.314Z,100467.41
2018-09-01T02:13:14.272Z,100462.22
2018-09-01T02:15:40.220Z,100460.47
2018-09-01T02:18:06.188Z,100461.31
2018-09-01T02:20:32.124Z,100464.69
2018-09-01T02:22:58.063Z,100458.60
2018-09-01T02:25:24.012Z,100447.19
2018-09-01T02:27:49.974Z,100449.76
2018-09-01T02:30:15.965Z,100454.84
2018-09-01T02:32:41.903Z,100455.66
2018-09-01T02:35:07.863Z,100452.84
2018-09-01T02:37:33.836Z,100454.56
2018-09-01T02:39:59.796Z,100454.45
2018-09-01T02:42:25.801Z,100450.55
2018-09-01T02:44:51.781Z,100455.05
2018-09-01T02:47:17.727Z,100459.23
2018-09-01T02:49:43.901Z,100469.88
2018-09-01T02:52:09.852Z,100474.16
2018-09-01T02:54:35.825Z,100469.06
2018-09-01T02:57:01.779Z,100478.91
2018-09-01T02:59:27.735Z,100482.97
2018-09-01T03:01:53.694Z,100481.59
2018-09-01T03:04:19.630Z,100486.42
2018-09-01T03:06:45.599Z,100488.83
2018-09-01T03:09:11.544Z,100481.25
2018-09-01T03:11:37.494Z,100481.77
2018-09-01T03:14:03.431Z,100478.60
2018-09-01T03:16:29.392Z,100478.14
2018-09-01T03:18:55.339Z,100476.46
2018-09-01T03:21:21.335Z,100479.47
2018-09-01T03:23:47.290Z,100484.91
2018-09-01T03:26:13.280Z,100481.10
2018-09-01T03:28:39.219Z,100475.59
2018-09-01T03:31:05.183Z,100477.56
2018-09-01T03:33:31.153Z,100472.94
2018-09-01T03:35:57.103Z,100471.07
2018-09-01T03:38:23.037Z,100469.38
2018-09-01T03:40:49.004Z,100468.64
2018-09-01T03:43:14.948Z,100468.14
2018-09-01T03:45:40.900Z,100464.07
2018-09-01T03:48:06.871Z,100465.53
2018-09-01T03:50:32.863Z,100471.45
2018-09-01T03:52:58.816Z,100475.09
2018-09-01T03:55:24.756Z,100478.23
2018-09-01T03:57:50.690Z,100484.72
2018-09-01T04:00:16.685Z,100482.83
2018-09-01T04:02:42.619Z,100477.23
2018-09-01T04:05:08.606Z,100488.83
2018-09-01T04:07:34.591Z,100488.61
2018-09-01T04:10:00.545Z,100494.92
2018-09-01T04:12:26.519Z,100498.08
2018-09-01T04:14:52.468Z,100495.41
2018-09-01T04:17:18.419Z,100498.08
2018-09-01T04:19:44.385Z,100499.28
2018-09-01T04:22:10.320Z,100504.67
2018-09-01T04:24:36.343Z,100507.36
2018-09-01T04:27:02.302Z,100512.34
2018-09-01T04:29:28.228Z,100513.33
2018-09-01T04:31:54.185Z,100519.83
2018-09-01T04:34:20.112Z,100522.22
2018-09-01T04:36:46.095Z,100518.24
2018-09-01T04:39:12.038Z,100512.42
2018-09-01T04:41:38.024Z,100515.55
2018-09-01T04:44:04.050Z,100525.25
2018-09-01T04:46:30.016Z,100528.94
2018-09-01T04:48:55.970Z,100535.09
2018-09-01T04:51:21.948Z,100534.66
2018-09-01T04:53:47.885Z,100538.50
2018-09-01T04:56:13.934Z,100541.31
2018-09-01T04:58:39.898Z,100531.87
2018-09-01T05:01:05.951Z,100531.33
2018-09-01T05:03:31.860Z,100540.12
2018-09-01T05:05:58.102Z,100541.89
2018-09-01T05:08:24.047Z,100540.52
2018-09-01T05:10:50.008Z,100536.05
2018-09-01T05:13:15.953Z,100544.77
2018-09-01T05:15:41.880Z,100528.89
2018-09-01T05:18:07.852Z,100539.08
2018-09-01T05:20:33.821Z,100544.59
2018-09-01T05:22:59.794Z,100550.78
2018-09-01T05:25:25.761Z,100540.61
2018-09-01T05:27:51.702Z,100539.96
2018-09-01T05:30:17.645Z,100539.27
2018-09-01T05:32:43.678Z,100543.27
2018-09-01T05:35:09.625Z,100542.92
2018-09-01T05:37:35.607Z,100549.15
2018-09-01T05:40:01.653Z,100549.87
2018-09-01T05:42:28.675Z,100556.52
2018-09-01T05:44:54.621Z,100555.06
2018-09-01T05:47:20.592Z,100556.83
2018-09-01T05:49:46.554Z,100561.55
2018-09-01T05:52:12.497Z,100561.35
2018-09-01T05:54:38.479Z,100560.81
2018-09-01T05:57:05.468Z,100564.17
2018-09-01T05:59:31.408Z,100560.59
2018-09-01T06:01:57.392Z,100560.93
2018-09-01T06:04:23.370Z,100560.93
2018-09-01T06:06:49.337Z,100560.92
2018-09-01T06:09:15.279Z,100563.66
2018-09-01T06:11:41.239Z,100567.91
2018-09-01T06:14:07.177Z,100567.95
2018-09-01T06:16:33.208Z,100566.75
2018-09-01T06:18:59.174Z,100564.34
2018-09-01T06:21:25.096Z,100567.41
2018-09-01T06:23:52.150Z,100572.02
2018-09-01T06:26:18.110Z,100574.70
2018-09-01T06:28:44.087Z,100573.19
2018-09-01T06:31:10.045Z,100565.20
2018-09-01T06:33:36.031Z,100575.91
2018-09-01T06:36:01.988Z,100581.97
2018-09-01T06:38:27.983Z,100582.44
2018-09-01T06:40:53.984Z,100577.05
2018-09-01T06:43:19.971Z,100577.53
2018-09-01T06:45:45.945Z,100574.10
2018-09-01T06:48:11.918Z,100576.25
2018-09-01T06:50:37.954Z,100570.10
2018-09-01T06:53:03.916Z,100575.34
2018-09-01T06:55:29.874Z,100580.30
2018-09-01T06:57:55.851Z,100586.72
2018-09-01T07:00:21.809Z,100588.86
2018-09-01T07:02:47.773Z,100593.80
2018-09-01T07:05:13.740Z,100597.70
2018-09-01T07:07:39.728Z,100600.27
2018-09-01T07:10:05.680Z,100595.23
2018-09-01T07:12:31.660Z,100597.45
2018-09-01T07:14:57.724Z,100586.48
2018-09-01T07:17:23.750Z,100596.71
2018-09-01T07:19:49.733Z,100602.04
2018-09-01T07:22:15.696Z,100597.42
2018-09-01T07:24:41.652Z,100590.34
2018-09-01T07:27:07.649Z,100591.71
2018-09-01T07:29:33.649Z,100592.59
2018-09-01T07:31:59.660Z,100591.42
2018-09-01T07:34:25.610Z,100593.20
2018-09-01T07:36:51.567Z,100589.02
2018-09-01T07:39:17.526Z,100599.89
2018-09-01T07:41:43.550Z,100597.95
2018-09-01T07:44:09.497Z,100598.20
2018-09-01T07:46:35.440Z,100601.36
2018-09-01T07:49:01.417Z,100604.84
2018-09-01T07:51:27.377Z,100611.42
2018-09-01T07:53:53.357Z,100607.66
2018-09-01T07:56:19.360Z,100611.08
2018-09-01T07:58:45.340Z,100609.23
2018-09-01T08:01:11.421Z,100612.84
2018-09-01T08:03:37.453Z,100619.42
2018-09-01T08:06:03.393Z,100623.61
2018-09-01T08:08:30.458Z,100618.34
2018-09-01T08:10:56.485Z,100621.88
2018-09-01T08:13:22.508Z,100623.87
2018-09-01T08:15:48.470Z,100630.91
2018-09-01T08:18:14.464Z,100630.69
2018-09-01T08:20:40.405Z,100633.03
2018-09-01T08:23:06.356Z,100628.92
2018-09-01T08:25:32.304Z,100629.31
2018-09-01T08:27:58.241Z,100634.06
2018-09-01T08:30:24.185Z,100634.46
2018-09-01T08:32:50.159Z,100630.46
2018-09-01T08:35:16.141Z,100631.66
2018-09-01T08:37:42.082Z,100629.73
2018-09-01T08:40:08.057Z,100448.19
2018-09-01T08:42:34.019Z,100630.55
2018-09-01T08:45:00.008Z,100630.55
2018-09-01T08:47:25.954Z,100630.97
2018-09-01T08:49:51.957Z,100622.99
2018-09-01T08:52:17.972Z,100631.13
2018-09-01T08:54:43.967Z,100628.27
2018-09-01T08:57:09.910Z,100627.68
2018-09-01T08:59:35.872Z,100624.48
2018-09-01T09:02:01.826Z,100633.97
2018-09-01T09:04:27.787Z,100626.16
2018-09-01T09:06:53.720Z,100627.60
2018-09-01T09:09:22.488Z,100632.36
2018-09-01T09:11:48.435Z,100633.18
2018-09-01T09:14:14.384Z,100638.08
2018-09-01T09:16:40.333Z,100638.77
2018-09-01T09:19:06.343Z,100643.67
2018-09-01T09:21:32.316Z,100649.64
2018-09-01T09:23:58.280Z,100643.27
2018-09-01T09:26:24.232Z,100651.13
2018-09-01T09:28:50.212Z,100649.12
2018-09-01T09:31:16.185Z,100650.60
2018-09-01T09:33:42.170Z,100649.73
2018-09-01T09:36:08.133Z,100647.32
2018-09-01T09:38:35.164Z,100655.13
2018-09-01T09:41:01.120Z,100651.98
2018-09-01T09:43:27.072Z,100649.75
2018-09-01T09:45:53.043Z,100651.13
2018-09-01T09:48:19.003Z,100650.55
2018-09-01T09:50:44.963Z,100657.57
2018-09-01T09:53:11.016Z,100653.70
2018-09-01T09:55:36.965Z,100650.75
2018-09-01T09:58:02.920Z,100648.00
2018-09-01T10:00:28.883Z,100648.66
2018-09-01T10:02:54.862Z,100650.13
2018-09-01T10:05:20.848Z,100659.11
2018-09-01T10:07:46.821Z,100656.59
2018-09-01T10:10:12.833Z,100657.75
2018-09-01T10:12:38.820Z,100659.16
2018-09-01T10:15:04.778Z,100659.86
2018-09-01T10:17:30.780Z,100658.36
2018-09-01T10:19:56.848Z,100668.38
2018-09-01T10:22:22.779Z,100664.80
2018-09-01T10:24:48.737Z,100664.11
2018-09-01T10:27:14.688Z,100671.61
2018-09-01T10:29:40.621Z,100665.69
2018-09-01T10:32:06.572Z,100669.55
2018-09-01T10:34:32.502Z,100671.88
2018-09-01T10:36:58.473Z,100670.35
2018-09-01T10:39:24.411Z,100671.39
2018-09-01T10:41:50.385Z,100671.36
2018-09-01T10:44:16.378Z,100674.80
2018-09-01T10:46:42.383Z,100675.11
2018-09-01T10:49:08.402Z,100669.70
2018-09-01T10:51:34.376Z,100664.11
2018-09-01T10:54:00.338Z,100660.90
2018-09-01T10:56:26.324Z,100662.83
2018-09-01T10:58:52.388Z,100666.92
2018-09-01T11:01:18.306Z,100668.78
2018-09-01T11:03:44.268Z,100668.57
2018-09-01T11:06:10.205Z,100664.63
2018-09-01T11:08:36.164Z,100666.98
2018-09-01T11:11:02.121Z,100663.03
2018-09-01T11:13:28.101Z,100665.30
2018-09-01T11:15:54.060Z,100658.17
2018-09-01T11:18:20.013Z,100654.72
2018-09-01T11:20:46.057Z,100661.43
2018-09-01T11:23:11.979Z,100656.50
2018-09-01T11:25:37.987Z,100657.30
2018-09-01T11:28:03.977Z,100659.18
2018-09-01T11:30:29.938Z,100662.88
2018-09-01T11:32:55.900Z,100661.91
2018-09-01T11:35:21.853Z,100666.28
2018-09-01T11:37:47.809Z,100659.69
2018-09-01T11:40:13.773Z,100665.20
2018-09-01T11:42:39.903Z,100665.92
2018-09-01T11:45:05.714Z,100661.39
2018-09-01T11:47:31.678Z,100665.58
2018-09-01T11:49:57.659Z,100660.87
2018-09-01T11:52:23.721Z,100663.31
2018-09-01T11:54:49.693Z,100663.55
2018-09-01T11:57:15.637Z,100672.77
2018-09-01T11:59:41.608Z,100670.84
2018-09-01T12:02:07.664Z,100661.64
2018-09-01T12:04:33.605Z,100665.41
2018-09-01T12:06:59.567Z,100667.39
2018-09-01T12:09:25.603Z,100668.37
2018-09-01T12:11:51.607Z,100673.72
2018-09-01T12:14:17.549Z,100673.94
2018-09-01T12:16:43.494Z,100675.30
2018-09-01T12:19:09.472Z,100678.26
2018-09-01T12:21:35.409Z,100679.77
2018-09-01T12:24:01.353Z,100677.09
2018-09-01T12:26:27.315Z,100673.72
2018-09-01T12:28:53.262Z,100669.85
2018-09-01T12:31:19.226Z,100673.56
2018-09-01T12:33:45.208Z,100677.14
2018-09-01T12:36:11.254Z,100674.11
2018-09-01T12:38:37.183Z,100673.62
2018-09-01T12:41:03.133Z,100675.81
2018-09-01T12:43:29.069Z,100671.98
2018-09-01T12:45:55.022Z,100670.80
2018-09-01T12:48:20.979Z,100678.77
2018-09-01T12:50:46.973Z,100676.45
2018-09-01T12:53:13.029Z,100681.02
2018-09-01T12:55:38.952Z,100677.48
2018-09-01T12:58:04.995Z,100674.81
2018-09-01T13:00:30.945Z,100682.32
2018-09-01T13:02:56.912Z,100683.61
2018-09-01T13:05:22.882Z,100681.83
2018-09-01T13:07:48.909Z,100682.73
2018-09-01T13:10:14.863Z,100677.48
2018-09-01T13:12:40.843Z,100668.66
2018-09-01T13:15:06.848Z,100674.23
2018-09-01T13:17:32.786Z,100672.54
2018-09-01T13:19:58.743Z,100671.36
2018-09-01T13:22:24.700Z,100679.19
2018-09-01T13:24:50.682Z,100682.30
2018-09-01T13:27:16.645Z,100679.28
2018-09-01T13:29:42.588Z,100679.59
2018-09-01T13:32:08.552Z,100681.23
2018-09-01T13:34:34.561Z,100686.05
2018-09-01T13:37:00.531Z,100683.41
2018-09-01T13:39:26.526Z,100685.02
2018-09-01T13:41:52.456Z,100687.97
2018-09-01T13:44:18.472Z,100691.25
2018-09-01T13:46:44.444Z,100698.81
2018-09-01T13:49:10.435Z,100698.95
2018-09-01T13:51:36.460Z,100698.20
2018-09-01T13:54:02.525Z,100705.50
2018-09-01T13:56:28.487Z,100698.34
2018-09-01T13:58:54.429Z,100698.75
2018-09-01T14:01:20.408Z,100701.46
2018-09-01T14:03:46.364Z,100695.89
2018-09-01T14:06:12.299Z,100700.23
2018-09-01T14:08:38.279Z,100700.66
2018-09-01T14:11:04.259Z,100703.50
2018-09-01T14:13:30.202Z,100699.55
2018-09-01T14:15:56.164Z,100698.22
2018-09-01T14:18:23.143Z,100698.41
2018-09-01T14:20:49.895Z,100694.09
2018-09-01T14:23:15.855Z,100698.47
2018-09-01T14:25:41.799Z,100688.73
2018-09-01T14:28:07.781Z,100685.22
2018-09-01T14:30:33.721Z,100682.84
2018-09-01T14:32:59.744Z,100680.18
2018-09-01T14:35:25.699Z,100682.08
2018-09-01T14:37:51.723Z,100680.14
2018-09-01T14:40:17.688Z,100681.63
2018-09-01T14:42:43.664Z,100683.48
2018-09-01T14:45:09.685Z,100684.77
2018-09-01T14:47:35.660Z,100686.84
2018-09-01T14:50:01.855Z,100689.66
2018-09-01T14:52:27.820Z,100686.55
2018-09-01T14:54:53.801Z,100686.08
2018-09-01T14:57:19.768Z,100684.77
2018-09-01T14:59:45.733Z,100696.42
2018-09-01T15:02:11.718Z,100690.73
2018-09-01T15:04:37.767Z,100698.41
2018-09-01T15:07:03.826Z,100701.42
2018-09-01T15:09:29.754Z,100692.46
2018-09-01T15:11:55.730Z,100698.59
2018-09-01T15:14:21.704Z,100697.75
2018-09-01T15:16:47.657Z,100702.87
2018-09-01T15:19:13.622Z,100707.08
2018-09-01T15:21:39.561Z,100706.72
2018-09-01T15:24:05.528Z,100703.45
2018-09-01T15:26:31.512Z,100708.24
2018-09-01T15:28:58.573Z,100715.19
2018-09-01T15:31:25.247Z,100713.03
2018-09-01T15:33:51.184Z,100717.19
2018-09-01T15:36:17.135Z,100716.38
2018-09-01T15:38:43.084Z,100716.81
2018-09-01T15:41:09.067Z,100720.92
2018-09-01T15:43:35.048Z,100724.30
2018-09-01T15:46:00.990Z,100726.72
2018-09-01T15:48:26.921Z,100727.17
2018-09-01T15:50:52.884Z,100725.90
2018-09-01T15:53:18.841Z,100724.25
2018-09-01T15:55:44.798Z,100726.02
2018-09-01T15:58:10.761Z,100722.29
2018-09-01T16:00:36.735Z,100720.79
2018-09-01T16:03:02.729Z,100717.52
2018-09-01T16:05:28.725Z,100717.19
2018-09-01T16:07:54.669Z,100722.77
2018-09-01T16:10:20.630Z,100723.38
2018-09-01T16:12:46.569Z,100724.86
2018-09-01T16:15:12.558Z,100727.91
2018-09-01T16:17:38.547Z,100726.70
2018-09-01T16:20:04.480Z,100731.70
2018-09-01T16:22:30.429Z,100728.27
2018-09-01T16:24:56.398Z,100730.76
2018-09-01T16:27:22.377Z,100727.84
2018-09-01T16:29:48.347Z,100730.51
2018-09-01T16:32:14.336Z,100727.00
2018-09-01T16:34:40.358Z,100730.25
2018-09-01T16:37:06.284Z,100727.42
2018-09-01T16:39:32.372Z,100723.72
2018-09-01T16:41:58.344Z,100724.00
2018-09-01T16:44:24.319Z,100726.83
2018-09-01T16:46:50.276Z,100720.84
2018-09-01T16:49:16.274Z,100721.39
2018-09-01T16:51:42.211Z,100727.91
2018-09-01T16:54:08.200Z,100725.80
2018-09-01T16:56:34.160Z,100719.91
2018-09-01T16:59:00.144Z,100720.48
2018-09-01T17:01:26.112Z,100717.63
2018-09-01T17:03:52.098Z,100721.83
2018-09-01T17:06:18.077Z,100717.48
2018-09-01T17:08:44.027Z,100721.21
2018-09-01T17:11:09.984Z,100718.78
2018-09-01T17:13:35.952Z,100724.83
2018-09-01T17:16:01.987Z,100724.00
2018-09-01T17:18:27.966Z,100733.90
2018-09-01T17:20:53.921Z,100733.90
2018-09-01T17:23:19.894Z,100738.65
2018-09-01T17:25:45.846Z,100736.38
2018-09-01T17:28:11.779Z,100737.49
2018-09-01T17:30:37.730Z,100734.69
2018-09-01T17:33:03.740Z,100732.70
2018-09-01T17:35:29.727Z,100738.64
2018-09-01T17:37:55.723Z,100737.96
2018-09-01T17:40:21.714Z,100741.02
2018-09-01T17:42:47.696Z,100747.34
2018-09-01T17:45:13.742Z,100747.69
2018-09-01T17:47:39.722Z,100748.11
2018-09-01T17:50:05.684Z,100746.22
2018-09-01T17:52:31.704Z,100749.95
2018-09-01T17:54:57.680Z,100748.08
2018-09-01T17:57:23.636Z,100741.75
2018-09-01T17:59:49.706Z,100743.54
2018-09-01T18:02:15.706Z,100740.71
2018-09-01T18:04:41.667Z,100740.61
2018-09-01T18:07:07.700Z,100745.89
2018-09-01T18:09:33.898Z,100747.81
2018-09-01T18:11:59.834Z,100745.77
2018-09-01T18:14:25.824Z,100742.00
2018-09-01T18:16:51.990Z,100748.55
2018-09-01T18:19:18.497Z,100752.83
2018-09-01T18:21:44.721Z,100752.48
2018-09-01T18:24:10.998Z,100750.47
2018-09-01T18:26:37.025Z,100753.64
2018-09-01T18:29:02.996Z,100761.43
2018-09-01T18:31:28.979Z,100762.28
2018-09-01T18:33:55.648Z,100765.34
2018-09-01T18:36:21.645Z,100762.87
2018-09-01T18:38:47.609Z,100750.70
2018-09-01T18:41:13.543Z,100762.23
2018-09-01T18:43:39.485Z,100752.47
2018-09-01T18:46:05.452Z,100761.05
2018-09-01T18:48:31.553Z,100755.89
2018-09-01T18:50:57.531Z,100755.41
2018-09-01T18:53:23.521Z,100752.57
2018-09-01T18:55:49.533Z,100756.34
2018-09-01T18:58:15.644Z,100756.55
2018-09-01T19:00:41.607Z,100759.25
2018-09-01T19:03:07.618Z,100761.52
2018-09-01T19:05:33.583Z,100757.62
2018-09-01T19:07:59.567Z,100757.61
2018-09-01T19:10:25.529Z,100756.05
2018-09-01T19:12:51.484Z,100757.16
2018-09-01T19:15:17.468Z,100751.33
2018-09-01T19:17:43.423Z,100754.61
2018-09-01T19:20:09.364Z,100758.20
2018-09-01T19:22:35.317Z,100758.75
2018-09-01T19:25:01.427Z,100754.06
2018-09-01T19:27:27.387Z,100753.68
2018-09-01T19:29:53.362Z,100750.39
2018-09-01T19:32:19.378Z,100749.92
2018-09-01T19:34:45.447Z,100745.14
2018-09-01T19:37:11.406Z,100748.55
2018-09-01T19:39:37.391Z,100743.32
2018-09-01T19:42:03.418Z,100745.45
2018-09-01T19:44:29.394Z,100737.27
2018-09-01T19:46:55.406Z,100731.84
2018-09-01T19:49:21.388Z,100733.05
2018-09-01T19:51:47.348Z,100726.83
2018-09-01T19:54:13.337Z,100730.98
2018-09-01T19:56:39.335Z,100726.57
2018-09-01T19:59:05.357Z,100727.03
2018-09-01T20:01:31.331Z,100724.07
2018-09-01T20:03:57.328Z,100726.22
2018-09-01T20:06:23.317Z,100728.25
2018-09-01T20:08:49.280Z,100731.72
2018-09-01T20:11:15.265Z,100734.11
2018-09-01T20:13:41.241Z,100731.78
2018-09-01T20:16:07.250Z,100736.25
2018-09-01T20:18:33.205Z,100738.00
2018-09-01T20:20:59.158Z,100730.17
2018-09-01T20:23:25.116Z,100730.17
2018-09-01T20:25:51.082Z,100733.92
2018-09-01T20:28:17.031Z,100736.81
2018-09-01T20:30:43.057Z,100732.22
2018-09-01T20:33:09.052Z,100728.89
2018-09-01T20:35:35.012Z,100721.95
2018-09-01T20:38:01.096Z,100718.37
2018-09-01T20:40:27.069Z,100718.53
2018-09-01T20:42:53.049Z,100723.19
2018-09-01T20:45:19.035Z,100722.42
2018-09-01T20:47:44.985Z,100722.19
2018-09-01T20:50:10.962Z,100726.34
2018-09-01T20:52:36.953Z,100733.00
2018-09-01T20:55:02.940Z,100731.33
2018-09-01T20:57:28.905Z,100728.24
2018-09-01T20:59:54.893Z,100727.01
2018-09-01T21:02:20.873Z,100734.49
2018-09-01T21:04:46.854Z,100725.52
2018-09-01T21:07:12.843Z,100729.14
2018-09-01T21:09:38.810Z,100728.20
2018-09-01T21:12:04.784Z,100723.50
2018-09-01T21:14:30.767Z,100724.22
2018-09-01T21:16:56.743Z,100725.20
2018-09-01T21:19:22.716Z,100727.21
2018-09-01T21:21:48.750Z,100729.16
2018-09-01T21:24:14.747Z,100728.52
2018-09-01T21:26:40.716Z,100730.91
2018-09-01T21:29:06.742Z,100730.09
2018-09-01T21:31:32.729Z,100728.97
2018-09-01T21:33:58.668Z,100726.62
2018-09-01T21:36:24.642Z,100726.49
2018-09-01T21:38:50.612Z,100722.94
2018-09-01T21:41:16.652Z,100723.66
2018-09-01T21:43:42.625Z,100729.40
2018-09-01T21:46:08.564Z,100724.69
2018-09-01T21:48:34.596Z,100725.93
2018-09-01T21:51:00.540Z,100727.08
2018-09-01T21:53:26.488Z,100716.44
2018-09-01T21:55:52.424Z,100722.05
2018-09-01T21:58:18.377Z,100718.92
2018-09-01T22:00:44.321Z,100722.71
2018-09-01T22:03:10.327Z,100719.62
2018-09-01T22:05:36.328Z,100722.41
2018-09-01T22:08:02.272Z,100719.73
2018-09-01T22:10:28.538Z,100725.33
2018-09-01T22:12:54.506Z,100711.61
2018-09-01T22:15:20.464Z,100706.07
2018-09-01T22:17:46.449Z,100706.30
2018-09-01T22:20:12.393Z,100706.88
2018-09-01T22:22:38.384Z,100708.42
2018-09-01T22:25:04.350Z,100708.37
2018-09-01T22:27:30.358Z,100707.04
2018-09-01T22:29:56.315Z,100703.07
2018-09-01T22:32:22.306Z,100703.70
2018-09-01T22:34:48.272Z,100706.02
2018-09-01T22:37:14.231Z,100703.42
2018-09-01T22:39:40.212Z,100707.39
2018-09-01T22:42:06.167Z,100704.26
2018-09-01T22:44:32.467Z,100699.43
2018-09-01T22:46:58.434Z,100700.23
2018-09-01T22:49:24.400Z,100700.82
2018-09-01T22:51:50.371Z,100703.45
2018-09-01T22:54:16.346Z,100701.58
2018-09-01T22:56:42.347Z,100706.69
2018-09-01T22:59:08.321Z,100707.81
2018-09-01T23:01:34.282Z,100708.71
2018-09-01T23:04:00.282Z,100702.61
2018-09-01T23:06:26.249Z,100708.13
2018-09-01T23:08:52.239Z,100707.13
2018-09-01T23:11:18.198Z,100705.57
2018-09-01T23:13:44.173Z,100701.66
2018-09-01T23:16:10.139Z,100703.67
2018-09-01T23:18:36.106Z,100707.39
2018-09-01T23:21:02.094Z,100707.48
2018-09-01T23:23:28.057Z,100707.05
2018-09-01T23:25:54.055Z,100708.33
2018-09-01T23:28:20.013Z,100656.11
2018-09-01T23:30:46.009Z,100703.27
2018-09-01T23:33:11.999Z,100696.01
2018-09-01T23:35:37.962Z,100701.01
2018-09-01T23:38:03.934Z,100701.44
2018-09-01T23:40:29.920Z,100694.20
2018-09-01T23:42:55.911Z,100696.90
2018-09-01T23:45:21.839Z,100691.25
2018-09-01T23:47:47.823Z,100698.83
2018-09-01T23:50:13.793Z,100693.89
2018-09-01T23:52:39.748Z,100691.30
2018-09-01T23:55:05.722Z,100692.84
2018-09-01T23:57:31.692Z,100692.16
2018-09-01T23:59:57.621Z,100688.96
